createdAt,value
2023-12-24T00:00:44.663Z,91.77
2023-12-24T00:01:44.404Z,91.46
2023-12-24T00:02:47.235Z,91.26
2023-12-24T00:03:45.426Z,91.05
2023-12-24T00:04:44.384Z,90.95
2023-12-24T00:05:44.388Z,91.26
2023-12-24T00:06:45.126Z,91.26
2023-12-24T00:07:44.283Z,91.26
2023-12-24T00:08:44.289Z,91.05
2023-12-24T00:09:44.268Z,91.11
2023-12-24T00:10:44.257Z,90.91
2023-12-24T00:11:45.206Z,91.01
2023-12-24T00:12:44.211Z,91.22
2023-12-24T00:13:45.121Z,91.63
2023-12-24T00:14:44.195Z,91.52
2023-12-24T00:15:45.139Z,91.52
2023-12-24T00:16:44.418Z,91.73
2023-12-24T00:17:44.259Z,91.87
2023-12-24T00:18:45.253Z,91.97
2023-12-24T00:19:44.156Z,92.08
2023-12-24T00:20:44.163Z,92.18
2023-12-24T00:21:44.223Z,92.38
2023-12-24T00:22:44.101Z,92.59
2023-12-24T00:23:44.083Z,92.69
2023-12-24T00:24:44.077Z,92.69
2023-12-24T00:25:44.217Z,92.90
2023-12-24T00:26:44.239Z,92.90
2023-12-24T00:27:44.035Z,93.00
2023-12-24T00:28:44.182Z,93.10
2023-12-24T00:29:44.022Z,93.30
2023-12-24T00:30:44.117Z,93.41
2023-12-24T00:31:44.012Z,93.51
2023-12-24T00:32:44.068Z,93.92
2023-12-24T00:33:44.021Z,94.12
2023-12-24T00:34:43.971Z,94.43
2023-12-24T00:35:43.945Z,94.74
2023-12-24T00:36:43.925Z,94.95
2023-12-24T00:37:43.930Z,95.25
2023-12-24T00:38:43.935Z,95.46
2023-12-24T00:39:43.911Z,95.56
2023-12-24T00:40:43.878Z,95.66
2023-12-24T00:41:43.850Z,95.76
2023-12-24T00:42:43.901Z,96.07
2023-12-24T00:43:43.808Z,96.28
2023-12-24T00:44:43.831Z,96.42
2023-12-24T00:45:43.783Z,96.63
2023-12-24T00:46:43.803Z,96.83
2023-12-24T00:47:43.939Z,96.83
2023-12-24T00:48:43.841Z,97.04
2023-12-24T00:49:43.760Z,97.24
2023-12-24T00:50:43.740Z,97.34
2023-12-24T00:51:44.409Z,97.45
2023-12-24T00:52:43.724Z,97.45
2023-12-24T00:53:43.770Z,97.45
2023-12-24T00:54:43.749Z,97.45
2023-12-24T00:55:43.667Z,97.24
2023-12-24T00:56:43.676Z,97.14
2023-12-24T00:57:43.645Z,97.04
2023-12-24T00:58:43.705Z,96.83
2023-12-24T00:59:43.667Z,96.53
2023-12-24T01:00:43.612Z,96.22
2023-12-24T01:01:43.597Z,96.01
2023-12-24T01:02:43.588Z,95.81
2023-12-24T01:03:43.636Z,95.50
2023-12-24T01:04:43.608Z,95.29
2023-12-24T01:05:43.628Z,94.99
2023-12-24T01:06:43.573Z,94.64
2023-12-24T01:07:43.506Z,94.43
2023-12-24T01:08:43.508Z,94.64
2023-12-24T01:09:43.478Z,94.74
2023-12-24T01:10:43.489Z,94.74
2023-12-24T01:11:43.490Z,94.74
2023-12-24T01:12:43.444Z,94.95
2023-12-24T01:13:43.436Z,95.15
2023-12-24T01:14:43.527Z,95.36
2023-12-24T01:15:43.438Z,95.50
2023-12-24T01:16:43.423Z,95.46
2023-12-24T01:17:43.451Z,95.61
2023-12-24T01:18:43.427Z,95.81
2023-12-24T01:19:43.392Z,96.12
2023-12-24T01:20:43.410Z,96.32
2023-12-24T01:21:43.360Z,96.73
2023-12-24T01:22:43.312Z,97.14
2023-12-24T01:23:43.342Z,97.65
2023-12-24T01:24:43.318Z,98.16
2023-12-24T01:25:43.289Z,98.68
2023-12-24T01:26:43.292Z,98.99
2023-12-24T01:27:43.252Z,99.34
2023-12-24T01:28:43.248Z,99.44
2023-12-24T01:29:43.236Z,99.54
2023-12-24T01:30:43.313Z,99.54
2023-12-24T01:31:43.214Z,99.65
2023-12-24T01:32:43.411Z,99.65
2023-12-24T01:33:43.311Z,99.44
2023-12-24T01:34:43.182Z,99.34
2023-12-24T01:35:43.269Z,99.34
2023-12-24T01:36:43.156Z,99.24
2023-12-24T01:37:43.235Z,99.24
2023-12-24T01:38:43.159Z,99.34
2023-12-24T01:39:43.134Z,99.24
2023-12-24T01:40:43.102Z,99.34
2023-12-24T01:41:43.132Z,99.34
2023-12-24T01:42:43.138Z,99.24
2023-12-24T01:43:43.054Z,99.24
2023-12-24T01:44:43.077Z,99.24
2023-12-24T01:45:43.008Z,99.34
2023-12-24T01:46:43.014Z,99.34
2023-12-24T01:47:43.134Z,99.24
2023-12-24T01:48:43.128Z,99.03
2023-12-24T01:49:43.035Z,98.93
2023-12-24T01:50:43.048Z,98.72
2023-12-24T01:51:42.990Z,98.72
2023-12-24T01:52:42.937Z,98.62
2023-12-24T01:53:42.958Z,98.42
2023-12-24T01:54:42.955Z,97.70
2023-12-24T01:55:42.918Z,97.60
2023-12-24T01:56:43.042Z,97.45
2023-12-24T01:57:42.880Z,97.34
2023-12-24T01:58:42.869Z,97.14
2023-12-24T01:59:42.908Z,97.14
2023-12-24T02:00:42.892Z,97.04
2023-12-24T02:01:42.836Z,97.04
2023-12-24T02:02:42.863Z,97.14
2023-12-24T02:03:42.856Z,97.14
2023-12-24T02:04:42.813Z,96.83
2023-12-24T02:05:42.844Z,96.73
2023-12-24T02:06:42.751Z,96.53
2023-12-24T02:07:42.767Z,96.53
2023-12-24T02:08:42.757Z,96.32
2023-12-24T02:09:42.720Z,96.32
2023-12-24T02:10:42.724Z,96.22
2023-12-24T02:11:42.740Z,96.32
2023-12-24T02:12:42.663Z,96.32
2023-12-24T02:13:42.654Z,96.53
2023-12-24T02:14:42.715Z,96.63
2023-12-24T02:15:42.637Z,96.53
2023-12-24T02:16:42.677Z,96.53
2023-12-24T02:17:42.672Z,96.73
2023-12-24T02:18:42.677Z,96.63
2023-12-24T02:19:42.625Z,96.83
2023-12-24T02:20:42.639Z,97.04
2023-12-24T02:21:42.703Z,97.04
2023-12-24T02:22:42.568Z,97.04
2023-12-24T02:23:42.544Z,97.14
2023-12-24T02:24:42.538Z,97.24
2023-12-24T02:25:42.509Z,97.34
2023-12-24T02:26:42.538Z,97.45
2023-12-24T02:27:42.497Z,97.55
2023-12-24T02:28:42.474Z,97.65
2023-12-24T02:29:42.546Z,97.86
2023-12-24T02:30:42.524Z,97.96
2023-12-24T02:31:42.456Z,98.07
2023-12-24T02:32:42.617Z,98.27
2023-12-24T02:33:42.497Z,98.47
2023-12-24T02:34:42.394Z,98.58
2023-12-24T02:35:42.461Z,98.68
2023-12-24T02:36:42.390Z,98.78
2023-12-24T02:37:42.382Z,99.09
2023-12-24T02:38:42.430Z,99.29
2023-12-24T02:39:42.373Z,99.50
2023-12-24T02:40:42.325Z,99.70
2023-12-24T02:41:42.330Z,99.91
2023-12-24T02:42:42.332Z,99.99
2023-12-24T02:43:42.319Z,99.99
2023-12-24T02:44:42.279Z,99.99
2023-12-24T02:45:42.283Z,99.99
2023-12-24T02:46:42.252Z,99.99
2023-12-24T02:47:42.408Z,99.99
2023-12-24T02:48:42.326Z,99.99
2023-12-24T02:49:42.219Z,99.99
2023-12-24T02:50:42.222Z,99.99
2023-12-24T02:51:42.183Z,99.99
2023-12-24T02:52:42.227Z,99.99
2023-12-24T02:53:42.209Z,99.99
2023-12-24T02:54:42.202Z,99.99
2023-12-24T02:55:42.118Z,99.99
2023-12-24T02:56:42.171Z,99.99
2023-12-24T02:57:42.445Z,99.99
2023-12-24T02:58:42.071Z,99.99
2023-12-24T02:59:42.089Z,99.99
2023-12-24T03:00:42.132Z,99.99
2023-12-24T03:01:42.060Z,99.99
2023-12-24T03:02:42.197Z,99.99
2023-12-24T03:03:50.346Z,99.99
2023-12-24T03:04:42.043Z,99.99
2023-12-24T03:05:42.082Z,99.99
2023-12-24T03:06:41.971Z,99.99
2023-12-24T03:07:42.004Z,99.99
2023-12-24T03:08:41.948Z,99.99
2023-12-24T03:09:41.952Z,99.99
2023-12-24T03:10:41.930Z,99.99
2023-12-24T03:11:41.969Z,99.99
2023-12-24T03:12:41.929Z,99.99
2023-12-24T03:13:41.885Z,99.99
2023-12-24T03:14:41.897Z,99.99
2023-12-24T03:15:41.910Z,99.99
2023-12-24T03:16:41.840Z,99.99
2023-12-24T03:17:42.140Z,99.99
2023-12-24T03:18:41.939Z,99.99
2023-12-24T03:19:41.837Z,99.99
2023-12-24T03:20:41.920Z,99.99
2023-12-24T03:21:41.821Z,99.99
2023-12-24T03:22:41.793Z,99.99
2023-12-24T03:23:41.796Z,99.99
2023-12-24T03:24:41.759Z,99.99
2023-12-24T03:25:41.764Z,99.99
2023-12-24T03:26:41.764Z,99.99
2023-12-24T03:27:41.725Z,99.99
2023-12-24T03:28:41.713Z,99.99
2023-12-24T03:29:41.719Z,99.99
2023-12-24T03:30:41.692Z,99.99
2023-12-24T03:31:41.695Z,99.99
2023-12-24T03:32:41.744Z,99.99
2023-12-24T03:33:41.779Z,99.99
2023-12-24T03:34:41.638Z,99.99
2023-12-24T03:35:41.643Z,99.99
2023-12-24T03:36:41.594Z,99.99
2023-12-24T03:37:41.610Z,99.99
2023-12-24T03:38:41.635Z,99.99
2023-12-24T03:39:41.550Z,99.99
2023-12-24T03:40:41.537Z,99.99
2023-12-24T03:41:41.579Z,99.99
2023-12-24T03:42:41.526Z,99.99
2023-12-24T03:43:41.522Z,99.99
2023-12-24T03:44:41.542Z,99.99
2023-12-24T03:45:41.495Z,99.99
2023-12-24T03:46:41.465Z,99.99
2023-12-24T03:47:41.574Z,99.99
2023-12-24T03:48:41.511Z,99.99
2023-12-24T03:49:41.435Z,99.99
2023-12-24T03:50:41.474Z,99.99
2023-12-24T03:51:41.402Z,99.99
2023-12-24T03:52:41.398Z,99.99
2023-12-24T03:53:41.519Z,99.99
2023-12-24T03:54:41.375Z,99.99
2023-12-24T03:55:41.362Z,99.99
2023-12-24T03:56:41.401Z,99.99
2023-12-24T03:57:41.316Z,99.99
2023-12-24T03:58:41.330Z,99.99
2023-12-24T03:59:41.399Z,99.99
2023-12-24T04:00:41.343Z,99.99
2023-12-24T04:01:41.352Z,99.99
2023-12-24T04:02:41.339Z,99.99
2023-12-24T04:03:41.337Z,99.99
2023-12-24T04:04:41.254Z,99.99
2023-12-24T04:05:41.289Z,99.99
2023-12-24T04:06:41.266Z,99.99
2023-12-24T04:07:41.208Z,99.99
2023-12-24T04:08:41.235Z,99.99
2023-12-24T04:09:41.189Z,99.99
2023-12-24T04:10:43.472Z,99.99
2023-12-24T04:11:41.262Z,99.99
2023-12-24T04:12:41.138Z,99.99
2023-12-24T04:13:41.145Z,99.99
2023-12-24T04:14:41.299Z,99.99
2023-12-24T04:15:41.098Z,99.99
2023-12-24T04:16:41.100Z,99.99
2023-12-24T04:17:41.165Z,99.99
2023-12-24T04:18:41.181Z,99.99
2023-12-24T04:19:41.038Z,99.99
2023-12-24T04:20:41.139Z,99.99
2023-12-24T04:21:41.007Z,99.99
2023-12-24T04:22:41.004Z,99.99
2023-12-24T04:23:41.061Z,99.99
2023-12-24T04:24:40.990Z,99.99
2023-12-24T04:25:40.964Z,99.99
2023-12-24T04:26:41.101Z,99.99
2023-12-24T04:27:40.956Z,99.99
2023-12-24T04:28:40.982Z,99.99
2023-12-24T04:29:40.961Z,99.99
2023-12-24T04:30:40.963Z,99.99
2023-12-24T04:31:40.886Z,99.99
2023-12-24T04:32:41.032Z,99.99
2023-12-24T04:33:40.939Z,99.99
2023-12-24T04:34:40.878Z,99.99
2023-12-24T04:35:40.931Z,99.99
2023-12-24T04:36:40.826Z,99.99
2023-12-24T04:37:40.824Z,99.99
2023-12-24T04:38:40.842Z,99.99
2023-12-24T04:39:40.809Z,99.99
2023-12-24T04:40:40.791Z,99.99
2023-12-24T04:41:40.863Z,99.99
2023-12-24T04:42:40.761Z,99.99
2023-12-24T04:43:40.747Z,99.99
2023-12-24T04:44:40.818Z,99.99
2023-12-24T04:45:40.730Z,99.99
2023-12-24T04:46:40.713Z,99.99
2023-12-24T04:47:40.777Z,99.99
2023-12-24T04:48:40.814Z,99.99
2023-12-24T04:49:40.684Z,99.99
2023-12-24T04:50:40.712Z,99.99
2023-12-24T04:51:40.629Z,99.99
2023-12-24T04:52:40.635Z,99.99
2023-12-24T04:53:40.664Z,99.99
2023-12-24T04:54:40.598Z,99.99
2023-12-24T04:55:40.631Z,99.99
2023-12-24T04:56:40.584Z,99.99
2023-12-24T04:57:40.554Z,99.99
2023-12-24T04:58:40.561Z,99.99
2023-12-24T04:59:40.584Z,99.99
2023-12-24T05:00:40.535Z,99.99
2023-12-24T05:01:40.503Z,99.99
2023-12-24T05:02:40.563Z,99.99
2023-12-24T05:03:40.534Z,99.99
2023-12-24T05:04:40.503Z,99.99
2023-12-24T05:05:40.565Z,99.99
2023-12-24T05:06:40.442Z,99.99
2023-12-24T05:07:40.434Z,99.99
2023-12-24T05:08:40.540Z,99.99
2023-12-24T05:09:41.449Z,99.99
2023-12-24T05:10:40.395Z,99.99
2023-12-24T05:11:40.431Z,99.99
2023-12-24T05:12:40.424Z,99.99
2023-12-24T05:13:40.381Z,99.99
2023-12-24T05:14:40.411Z,99.99
2023-12-24T05:15:40.349Z,99.99
2023-12-24T05:16:40.308Z,99.99
2023-12-24T05:17:40.354Z,99.99
2023-12-24T05:18:40.406Z,99.99
2023-12-24T05:19:40.303Z,99.99
2023-12-24T05:20:40.273Z,99.99
2023-12-24T05:21:40.250Z,99.99
2023-12-24T05:22:40.245Z,99.99
2023-12-24T05:23:40.263Z,99.99
2023-12-24T05:24:40.249Z,99.99
2023-12-24T05:25:40.201Z,99.99
2023-12-24T05:26:40.227Z,99.99
2023-12-24T05:27:40.215Z,99.99
2023-12-24T05:28:40.170Z,99.99
2023-12-24T05:29:40.192Z,99.99
2023-12-24T05:30:40.185Z,99.99
2023-12-24T05:31:40.132Z,99.99
2023-12-24T05:32:40.316Z,99.99
2023-12-24T05:33:40.209Z,99.99
2023-12-24T05:34:40.145Z,99.99
2023-12-24T05:35:40.156Z,99.99
2023-12-24T05:36:40.053Z,99.99
2023-12-24T05:37:40.054Z,99.99
2023-12-24T05:38:40.086Z,99.99
2023-12-24T05:39:40.026Z,99.99
2023-12-24T05:40:40.017Z,99.99
2023-12-24T05:41:40.183Z,99.99
2023-12-24T05:42:40.012Z,99.99
2023-12-24T05:43:39.988Z,99.99
2023-12-24T05:44:40.086Z,99.99
2023-12-24T05:45:39.939Z,99.99
2023-12-24T05:46:39.950Z,99.99
2023-12-24T05:47:40.000Z,99.99
2023-12-24T05:48:40.028Z,99.99
2023-12-24T05:49:39.977Z,99.99
2023-12-24T05:50:39.945Z,99.99
2023-12-24T05:51:39.857Z,99.99
2023-12-24T05:52:39.842Z,99.99
2023-12-24T05:53:39.970Z,99.99
2023-12-24T05:54:39.842Z,99.99
2023-12-24T05:55:39.825Z,99.99
2023-12-24T05:56:39.941Z,99.99
2023-12-24T05:57:39.800Z,99.99
2023-12-24T05:58:39.815Z,99.99
2023-12-24T05:59:39.834Z,99.99
2023-12-24T06:00:39.803Z,99.99
2023-12-24T06:01:39.729Z,99.99
2023-12-24T06:02:39.770Z,99.99
2023-12-24T06:03:39.872Z,99.99
2023-12-24T06:04:39.704Z,99.99
2023-12-24T06:05:39.736Z,99.99
2023-12-24T06:06:39.708Z,99.99
2023-12-24T06:07:39.668Z,99.99
2023-12-24T06:08:39.919Z,99.99
2023-12-24T06:09:39.706Z,99.99
2023-12-24T06:10:39.620Z,99.99
2023-12-24T06:11:39.672Z,99.99
2023-12-24T06:12:39.600Z,99.99
2023-12-24T06:13:39.608Z,99.99
2023-12-24T06:14:39.642Z,99.99
2023-12-24T06:15:39.560Z,99.99
2023-12-24T06:16:39.574Z,99.99
2023-12-24T06:17:39.705Z,99.99
2023-12-24T06:18:39.760Z,99.99
2023-12-24T06:19:39.645Z,99.99
2023-12-24T06:20:39.517Z,99.99
2023-12-24T06:21:39.472Z,99.99
2023-12-24T06:22:39.493Z,99.99
2023-12-24T06:23:39.618Z,99.99
2023-12-24T06:24:39.483Z,99.99
2023-12-24T06:25:41.197Z,99.99
2023-12-24T06:26:39.433Z,99.99
2023-12-24T06:27:39.420Z,99.99
2023-12-24T06:28:39.420Z,99.99
2023-12-24T06:29:39.486Z,99.99
2023-12-24T06:30:39.404Z,99.99
2023-12-24T06:31:39.354Z,99.99
2023-12-24T06:32:39.485Z,99.99
2023-12-24T06:33:39.420Z,99.99
2023-12-24T06:34:39.334Z,99.99
2023-12-24T06:35:39.338Z,99.99
2023-12-24T06:36:39.307Z,99.99
2023-12-24T06:37:39.324Z,99.99
2023-12-24T06:38:39.363Z,99.99
2023-12-24T06:39:39.265Z,99.99
2023-12-24T06:40:39.249Z,99.99
2023-12-24T06:41:39.337Z,99.99
2023-12-24T06:42:39.227Z,99.99
2023-12-24T06:43:39.210Z,99.99
2023-12-24T06:44:39.363Z,99.99
2023-12-24T06:45:39.170Z,99.99
2023-12-24T06:46:39.174Z,99.99
2023-12-24T06:47:39.236Z,99.99
2023-12-24T06:48:39.252Z,99.99
2023-12-24T06:49:39.120Z,99.99
2023-12-24T06:50:39.192Z,99.99
2023-12-24T06:51:39.123Z,99.99
2023-12-24T06:52:39.158Z,99.99
2023-12-24T06:53:39.195Z,99.99
2023-12-24T06:54:39.066Z,99.99
2023-12-24T06:55:39.082Z,99.99
2023-12-24T06:56:39.107Z,99.99
2023-12-24T06:57:39.044Z,99.99
2023-12-24T06:58:39.080Z,99.99
2023-12-24T06:59:39.132Z,99.99
2023-12-24T07:00:39.075Z,99.99
2023-12-24T07:01:38.983Z,99.99
2023-12-24T07:02:38.983Z,99.99
2023-12-24T07:03:38.994Z,99.99
2023-12-24T07:04:38.955Z,99.99
2023-12-24T07:05:39.015Z,99.99
2023-12-24T07:06:39.036Z,99.99
2023-12-24T07:07:38.929Z,99.99
2023-12-24T07:08:39.069Z,99.99
2023-12-24T07:09:38.883Z,99.99
2023-12-24T07:10:38.868Z,99.99
2023-12-24T07:11:38.941Z,99.99
2023-12-24T07:12:38.857Z,99.99
2023-12-24T07:13:38.816Z,99.99
2023-12-24T07:14:38.894Z,99.99
2023-12-24T07:15:38.794Z,99.99
2023-12-24T07:16:41.034Z,99.99
2023-12-24T07:17:38.843Z,99.99
2023-12-24T07:18:38.851Z,99.99
2023-12-24T07:19:38.747Z,99.99
2023-12-24T07:20:38.757Z,99.99
2023-12-24T07:21:38.713Z,99.99
2023-12-24T07:22:38.727Z,99.99
2023-12-24T07:23:38.806Z,99.99
2023-12-24T07:24:38.692Z,99.99
2023-12-24T07:25:38.658Z,99.99
2023-12-24T07:26:38.785Z,99.99
2023-12-24T07:27:38.673Z,99.99
2023-12-24T07:28:38.624Z,99.99
2023-12-24T07:29:38.749Z,99.99
2023-12-24T07:30:38.638Z,99.99
2023-12-24T07:31:38.570Z,99.99
2023-12-24T07:32:38.706Z,99.99
2023-12-24T07:33:38.654Z,99.99
2023-12-24T07:34:38.557Z,99.99
2023-12-24T07:35:38.620Z,99.99
2023-12-24T07:36:38.551Z,99.99
2023-12-24T07:37:38.516Z,99.99
2023-12-24T07:38:38.524Z,99.99
2023-12-24T07:39:38.550Z,99.99
2023-12-24T07:40:38.495Z,99.99
2023-12-24T07:41:38.633Z,99.99
2023-12-24T07:42:38.470Z,99.99
2023-12-24T07:43:38.442Z,99.99
2023-12-24T07:44:38.531Z,99.99
2023-12-24T07:45:38.397Z,99.99
2023-12-24T07:46:38.413Z,99.99
2023-12-24T07:47:38.501Z,99.99
2023-12-24T07:48:38.460Z,99.99
2023-12-24T07:49:38.365Z,99.99
2023-12-24T07:50:38.503Z,99.99
2023-12-24T07:51:38.330Z,99.99
2023-12-24T07:52:38.312Z,99.99
2023-12-24T07:53:38.345Z,99.99
2023-12-24T07:54:38.302Z,99.99
2023-12-24T07:55:38.298Z,99.99
2023-12-24T07:56:38.304Z,99.99
2023-12-24T07:57:38.261Z,99.99
2023-12-24T07:58:38.251Z,99.99
2023-12-24T07:59:38.286Z,99.99
2023-12-24T08:00:38.238Z,99.99
2023-12-24T08:01:38.260Z,99.99
2023-12-24T08:02:38.222Z,99.99
2023-12-24T08:03:38.315Z,99.99
2023-12-24T08:04:38.166Z,99.99
2023-12-24T08:05:38.278Z,99.99
2023-12-24T08:06:38.353Z,99.99
2023-12-24T08:07:38.145Z,99.99
2023-12-24T08:08:38.157Z,99.99
2023-12-24T08:09:38.090Z,99.99
2023-12-24T08:10:38.117Z,99.99
2023-12-24T08:11:38.095Z,99.99
2023-12-24T08:12:38.048Z,99.99
2023-12-24T08:13:38.052Z,99.99
2023-12-24T08:14:38.067Z,99.99
2023-12-24T08:15:38.038Z,99.99
2023-12-24T08:16:38.042Z,99.99
2023-12-24T08:17:38.125Z,99.99
2023-12-24T08:18:38.134Z,99.99
2023-12-24T08:19:37.988Z,99.99
2023-12-24T08:20:38.093Z,99.99
2023-12-24T08:21:37.967Z,99.99
2023-12-24T08:22:37.932Z,99.99
2023-12-24T08:23:37.987Z,99.99
2023-12-24T08:24:37.917Z,99.99
2023-12-24T08:25:37.923Z,99.99
2023-12-24T08:26:37.955Z,99.99
2023-12-24T08:27:37.881Z,99.99
2023-12-24T08:28:37.853Z,99.99
2023-12-24T08:29:38.042Z,99.99
2023-12-24T08:30:37.965Z,99.99
2023-12-24T08:31:37.876Z,99.99
2023-12-24T08:32:37.973Z,99.99
2023-12-24T08:33:37.993Z,99.99
2023-12-24T08:34:37.860Z,99.99
2023-12-24T08:35:38.016Z,99.99
2023-12-24T08:36:37.816Z,99.99
2023-12-24T08:37:37.759Z,99.99
2023-12-24T08:38:37.761Z,99.99
2023-12-24T08:39:37.698Z,99.99
2023-12-24T08:40:37.705Z,99.99
2023-12-24T08:41:37.764Z,99.99
2023-12-24T08:42:37.682Z,99.99
2023-12-24T08:43:37.686Z,99.99
2023-12-24T08:44:37.753Z,99.99
2023-12-24T08:45:37.643Z,99.99
2023-12-24T08:46:37.618Z,99.99
2023-12-24T08:47:37.675Z,99.99
2023-12-24T08:48:37.704Z,99.99
2023-12-24T08:49:37.597Z,99.99
2023-12-24T08:50:37.620Z,99.99
2023-12-24T08:51:37.573Z,99.99
2023-12-24T08:52:37.548Z,99.99
2023-12-24T08:53:37.622Z,99.99
2023-12-24T08:54:37.523Z,99.99
2023-12-24T08:55:37.510Z,99.99
2023-12-24T08:56:37.578Z,99.99
2023-12-24T08:57:37.550Z,99.99
2023-12-24T08:58:37.624Z,99.99
2023-12-24T08:59:37.504Z,99.99
2023-12-24T09:00:37.488Z,99.99
2023-12-24T09:01:37.443Z,99.99
2023-12-24T09:02:37.444Z,99.99
2023-12-24T09:03:37.446Z,99.99
2023-12-24T09:04:37.409Z,99.99
2023-12-24T09:05:37.442Z,99.99
2023-12-24T09:07:28.789Z,99.99
2023-12-24T09:08:28.813Z,99.99
2023-12-24T09:09:28.750Z,99.99
2023-12-24T09:10:28.755Z,99.99
2023-12-24T09:11:28.783Z,99.99
2023-12-24T09:12:29.358Z,99.99
2023-12-24T09:13:28.668Z,99.99
2023-12-24T09:14:28.754Z,99.99
2023-12-24T09:15:28.654Z,99.99
2023-12-24T09:16:28.614Z,99.99
2023-12-24T09:17:28.733Z,99.99
2023-12-24T09:18:28.742Z,99.99
2023-12-24T09:19:28.754Z,99.99
2023-12-24T09:20:28.609Z,99.99
2023-12-24T09:21:28.555Z,99.99
2023-12-24T09:22:28.545Z,99.99
2023-12-24T09:23:28.605Z,99.99
2023-12-24T09:24:28.555Z,99.99
2023-12-24T09:25:28.537Z,99.99
2023-12-24T09:26:28.772Z,99.99
2023-12-24T09:27:28.607Z,99.99
2023-12-24T09:28:28.492Z,99.99
2023-12-24T09:29:28.591Z,99.99
2023-12-24T09:30:28.503Z,99.99
2023-12-24T09:31:28.504Z,99.99
2023-12-24T09:32:28.514Z,99.99
2023-12-24T09:33:28.494Z,99.99
2023-12-24T09:34:28.442Z,99.99
2023-12-24T09:35:28.459Z,99.99
2023-12-24T09:36:28.389Z,99.99
2023-12-24T09:37:28.423Z,99.99
2023-12-24T09:38:28.416Z,99.99
2023-12-24T09:39:28.348Z,99.99
2023-12-24T09:40:28.331Z,99.99
2023-12-24T09:41:31.109Z,99.99
2023-12-24T09:42:28.353Z,99.99
2023-12-24T09:43:28.288Z,99.99
2023-12-24T09:44:28.302Z,99.99
2023-12-24T09:45:30.575Z,99.99
2023-12-24T09:46:28.264Z,99.99
2023-12-24T09:47:28.376Z,99.99
2023-12-24T09:48:28.452Z,99.99
2023-12-24T09:50:24.458Z,99.99
2023-12-24T09:51:24.428Z,99.99
2023-12-24T09:52:25.330Z,99.99
2023-12-24T09:53:24.247Z,99.99
2023-12-24T09:54:24.216Z,99.99
2023-12-24T09:55:24.244Z,99.99
2023-12-24T09:56:24.259Z,99.99
2023-12-24T09:57:24.198Z,99.99
2023-12-24T09:58:24.165Z,99.99
2023-12-24T09:59:24.185Z,99.99
2023-12-24T10:00:24.133Z,99.99
2023-12-24T10:01:24.113Z,99.99
2023-12-24T10:02:24.177Z,99.99
2023-12-24T10:03:24.158Z,99.99
2023-12-24T10:04:24.130Z,99.99
2023-12-24T10:05:24.221Z,99.99
2023-12-24T10:06:24.202Z,99.99
2023-12-24T10:07:24.072Z,99.99
2023-12-24T10:08:24.154Z,99.99
2023-12-24T10:09:24.022Z,99.99
2023-12-24T10:10:26.710Z,99.99
2023-12-24T10:11:24.023Z,99.99
2023-12-24T10:12:24.001Z,99.99
2023-12-24T10:13:24.036Z,99.99
2023-12-24T10:14:23.968Z,99.99
2023-12-24T10:15:23.966Z,99.99
2023-12-24T10:16:23.912Z,99.99
2023-12-24T10:17:23.951Z,99.99
2023-12-24T10:18:24.097Z,99.99
2023-12-24T10:19:24.129Z,99.99
2023-12-24T10:20:23.997Z,99.99
2023-12-24T10:21:24.050Z,99.99
2023-12-24T10:22:23.901Z,99.99
2023-12-24T10:23:24.770Z,99.99
2023-12-24T10:24:24.036Z,99.99
2023-12-24T10:25:24.031Z,99.99
2023-12-24T10:26:33.848Z,99.99
2023-12-24T10:27:23.936Z,99.99
2023-12-24T10:28:23.767Z,99.99
2023-12-24T10:29:23.817Z,99.99
2023-12-24T10:30:23.848Z,99.99
2023-12-24T10:31:23.852Z,99.99
2023-12-24T10:32:23.955Z,99.99
2023-12-24T10:33:25.971Z,99.99
2023-12-24T10:34:23.784Z,99.99
2023-12-24T10:35:23.862Z,99.99
2023-12-24T10:36:23.635Z,99.99
2023-12-24T10:37:23.632Z,99.99
2023-12-24T10:38:23.698Z,99.99
2023-12-24T10:39:25.713Z,99.99
2023-12-24T10:40:23.668Z,99.99
2023-12-24T10:41:23.722Z,99.99
2023-12-24T10:42:23.629Z,99.99
2023-12-24T10:43:23.568Z,99.99
2023-12-24T10:44:23.571Z,99.99
2023-12-24T10:45:25.928Z,99.99
2023-12-24T10:46:23.528Z,99.99
2023-12-24T10:47:23.598Z,99.99
2023-12-24T10:48:23.762Z,99.99
2023-12-24T10:49:23.530Z,99.99
2023-12-24T10:50:23.517Z,99.99
2023-12-24T10:51:25.268Z,99.99
2023-12-24T10:52:23.440Z,99.99
2023-12-24T10:53:23.520Z,99.99
2023-12-24T10:54:23.474Z,99.99
2023-12-24T10:55:23.431Z,99.99
2023-12-24T10:56:23.436Z,99.99
2023-12-24T10:57:23.409Z,99.99
2023-12-24T10:58:23.602Z,99.99
2023-12-24T10:59:23.397Z,99.99
2023-12-24T11:00:23.448Z,99.99
2023-12-24T11:01:23.450Z,99.99
2023-12-24T11:02:23.551Z,99.99
2023-12-24T11:03:23.366Z,99.99
2023-12-24T11:04:23.362Z,99.99
2023-12-24T11:05:23.588Z,99.99
2023-12-24T11:06:23.333Z,99.99
2023-12-24T11:07:23.254Z,99.99
2023-12-24T11:08:23.374Z,99.99
2023-12-24T11:09:23.477Z,99.99
2023-12-24T11:10:23.265Z,99.99
2023-12-24T11:11:23.343Z,99.99
2023-12-24T11:12:23.190Z,99.99
2023-12-24T11:13:23.177Z,99.99
2023-12-24T11:14:23.225Z,99.99
2023-12-24T11:15:23.157Z,99.99
2023-12-24T11:18:21.520Z,99.99
2023-12-24T11:19:21.516Z,99.99
2023-12-24T11:21:44.862Z,99.99
2023-12-24T11:22:42.267Z,99.99
2023-12-24T11:23:42.290Z,99.99
2023-12-24T11:24:49.077Z,99.99
2023-12-24T11:25:43.187Z,99.99
2023-12-24T11:26:42.268Z,99.99
2023-12-24T11:27:51.836Z,99.99
2023-12-24T11:28:43.132Z,99.99
2023-12-24T11:29:42.348Z,99.99
2023-12-24T11:30:42.162Z,99.99
2023-12-24T11:31:42.120Z,99.99
2023-12-24T11:32:42.201Z,99.99
2023-12-24T11:33:42.133Z,99.99
2023-12-24T11:34:42.107Z,99.99
2023-12-24T11:35:42.101Z,99.99
2023-12-24T11:36:42.079Z,99.99
2023-12-24T11:37:42.014Z,99.99
2023-12-24T11:38:42.038Z,99.99
2023-12-24T11:39:41.992Z,99.99
2023-12-24T11:40:41.961Z,99.99
2023-12-24T11:41:41.997Z,99.99
2023-12-24T11:42:41.937Z,99.99
2023-12-24T11:43:41.950Z,99.99
2023-12-24T11:44:41.976Z,99.99
2023-12-24T11:45:41.934Z,99.99
2023-12-24T11:46:41.907Z,99.99
2023-12-24T11:47:41.998Z,99.99
2023-12-24T11:48:42.078Z,99.99
2023-12-24T11:49:41.864Z,99.99
2023-12-24T11:50:41.848Z,99.99
2023-12-24T11:51:41.862Z,99.99
2023-12-24T11:52:41.837Z,99.99
2023-12-24T11:53:41.885Z,99.99
2023-12-24T11:56:49.534Z,99.99
2023-12-24T11:57:49.527Z,99.99
2023-12-24T11:58:49.416Z,99.99
2023-12-24T11:59:49.522Z,99.99
2023-12-24T12:02:12.108Z,99.99
2023-12-24T12:03:12.485Z,99.99
2023-12-24T12:04:12.020Z,99.99
2023-12-24T12:06:51.040Z,99.99
2023-12-24T12:07:50.927Z,99.99
2023-12-24T12:08:51.022Z,99.99
2023-12-24T12:09:50.816Z,99.99
2023-12-24T12:10:50.806Z,99.99
2023-12-24T12:11:50.865Z,99.99
2023-12-24T12:12:51.614Z,99.99
2023-12-24T12:13:50.752Z,99.99
2023-12-24T12:14:50.885Z,99.99
2023-12-24T12:20:32.857Z,99.99
2023-12-24T12:21:33.625Z,99.99
2023-12-24T12:22:32.892Z,99.99
2023-12-24T12:23:33.795Z,99.99
2023-12-24T12:24:32.639Z,99.99
2023-12-24T12:25:32.630Z,99.99
2023-12-24T12:26:32.675Z,99.99
2023-12-24T12:27:32.653Z,99.99
2023-12-24T12:28:32.585Z,99.99
2023-12-24T12:29:32.696Z,99.99
2023-12-24T12:30:33.065Z,99.99
2023-12-24T12:31:32.612Z,99.99
2023-12-24T12:32:33.204Z,99.99
2023-12-24T12:33:50.270Z,99.99
2023-12-24T12:34:32.793Z,99.99
2023-12-24T12:35:32.732Z,99.99
2023-12-24T12:36:32.472Z,99.99
2023-12-24T12:37:32.582Z,99.99
2023-12-24T12:38:32.599Z,99.99
2023-12-24T12:39:32.445Z,99.99
2023-12-24T12:40:36.675Z,99.99
2023-12-24T12:42:45.508Z,99.99
2023-12-24T12:43:46.461Z,99.99
2023-12-24T12:44:45.439Z,99.99
2023-12-24T12:45:45.341Z,99.99
2023-12-24T12:46:45.506Z,99.99
2023-12-24T12:47:54.035Z,99.99
2023-12-24T12:48:45.620Z,99.99
2023-12-24T12:49:45.350Z,99.99
2023-12-24T12:50:45.342Z,99.99
2023-12-24T12:51:45.250Z,99.99
2023-12-24T12:52:45.363Z,99.99
2023-12-24T12:53:46.294Z,99.99
2023-12-24T12:54:45.178Z,99.99
2023-12-24T12:55:45.179Z,99.99
2023-12-24T12:56:54.442Z,99.99
2023-12-24T12:57:45.164Z,99.99
2023-12-24T12:58:45.156Z,99.99
2023-12-24T12:59:45.169Z,99.99
2023-12-24T13:00:46.321Z,99.99
2023-12-24T13:01:45.138Z,99.99
2023-12-24T13:02:45.276Z,99.99
2023-12-24T13:03:45.132Z,99.99
2023-12-24T13:04:45.159Z,99.99
2023-12-24T13:05:45.300Z,99.99
2023-12-24T13:06:45.065Z,99.99
2023-12-24T13:07:45.740Z,99.99
2023-12-24T13:08:45.073Z,99.99